Nyk Olympus — 3EOS7 — position and weather

sailwx.info

Track history (hours):
 
Tides and Currents Weather Stations Pressure Air Temp Water Temp Dewpoint Dewpoint Depression Visibility Wind Speed Wind Dir Waves Ship Positions

Nyk Olympus

Last reported at 2015-Mar-24 14:11 UTC. Time now 2015-Mar-27 06:55 UTC.
Position N 02°05' E 102°08'.

Length 335 m; draft 12.5 m.

Type: Ship. MMSI: 372478000.

Date/timePositionNaut miles runAvg speedWind from/ knotsBaromVisibWave heightAir tempDewpointWater temp
2015-Mar-24 14:11N 02°05' E 102°08'1218.3
2015-Mar-24 13:32N 01°57' E 102°16'1919.3
2015-Mar-24 12:33N 01°48' E 102°33'2120.7
2015-Mar-24 11:33N 01°38' E 102°52'6019.9
2015-Mar-24 08:32N 01°08' E 103°44'1010.3
2015-Mar-24 07:33N 01°15' E 103°51'1 0.9
2015-Mar-24 06:28N 01°16' E 103°51'0 0.0
2015-Mar-24 05:28N 01°16' E 103°51'0 0.0
2015-Mar-24 04:28N 01°16' E 103°51'0 0.0
2015-Mar-24 03:28N 01°16' E 103°51'0 0.0
2015-Mar-24 02:28N 01°16' E 103°51'0 0.0
2015-Mar-24 01:28N 01°16' E 103°51'0 0.0
2015-Mar-24 00:22N 01°16' E 103°51'0 0.0
2015-Mar-23 23:10N 01°16' E 103°51'0 0.0
2015-Mar-23 22:28N 01°16' E 103°51'0 0.0
2015-Mar-23 20:28N 01°16' E 103°51'0 0.0
2015-Mar-23 18:04N 01°16' E 103°51'0 0.0
2015-Mar-23 16:04N 01°16' E 103°51'0 0.0
2015-Mar-23 15:28N 01°16' E 103°51'0 0.0
2015-Mar-23 14:28N 01°16' E 103°51'0 0.0
2015-Mar-23 13:28N 01°16' E 103°51'0 0.0
2015-Mar-23 12:28N 01°16' E 103°51'0 0.0
2015-Mar-23 11:28N 01°16' E 103°51'0 0.0
2015-Mar-23 10:31N 01°16' E 103°51'0 0.0
2015-Mar-23 09:31N 01°16' E 103°51'0 0.0
2015-Mar-23 08:28N 01°16' E 103°51'0 0.0
2015-Mar-23 07:31N 01°16' E 103°51'0 0.0
2015-Mar-23 06:28N 01°16' E 103°51'0 0.0
2015-Mar-23 05:28N 01°16' E 103°51'0 0.0
2015-Mar-23 04:28N 01°16' E 103°51'0 0.0
2015-Mar-23 03:31N 01°16' E 103°51'0 0.0
2015-Mar-23 02:28N 01°16' E 103°51'0 0.0
2015-Mar-23 01:28N 01°16' E 103°51'0 0.0
2015-Mar-23 00:28N 01°16' E 103°51'0 0.0
2015-Mar-22 23:28N 01°16' E 103°51'3 3.5
2015-Mar-22 22:33N 01°14' E 103°53'4 3.9
2015-Mar-22 21:33N 01°15' E 103°57'9 9.2
2015-Mar-22 20:33N 01°17' E 104°06'1211.7
2015-Mar-22 19:32N 01°19' E 104°18'  
2015-Mar-18 10:13N 21°50' E 114°24'1217.6
2015-Mar-18 09:33N 22°02' E 114°27'2412.2
2015-Mar-18 07:33N 22°17' E 114°06'3 3.2
2015-Mar-18 06:33N 22°20' E 114°08'0 0.0
2015-Mar-18 04:21N 22°20' E 114°08'0 0.0
2015-Mar-18 02:30N 22°20' E 114°08'0 0.0
2015-Mar-18 01:33N 22°20' E 114°08'0 0.0
2015-Mar-18 00:24N 22°20' E 114°08'0 0.0
2015-Mar-17 23:24N 22°20' E 114°08'0 0.0
2015-Mar-17 22:33N 22°20' E 114°08'0 0.0
2015-Mar-17 21:33N 22°20' E 114°08'0 0.0
2015-Mar-17 20:33N 22°20' E 114°08'0 0.1
2015-Mar-17 19:33N 22°20' E 114°07'0 0.1
2015-Mar-17 18:33N 22°20' E 114°08'0 0.0
2015-Mar-17 17:33N 22°20' E 114°08'0 0.0
2015-Mar-17 16:27N 22°20' E 114°08'0 0.0
2015-Mar-17 15:33N 22°20' E 114°08'0 0.0
2015-Mar-17 14:33N 22°20' E 114°08'4 3.6
2015-Mar-17 13:33N 22°16' E 114°07'10 9.8
2015-Mar-17 12:33N 22°09' E 114°14'1312.8
2015-Mar-17 11:33N 22°09' E 114°28'19417.4
2015-Mar-17 00:25N 23°26' E 117°41'1517.8
2015-Mar-16 23:33N 23°36' E 117°53'1817.5
2015-Mar-16 22:33N 23°47' E 118°08'1817.4
2015-Mar-16 21:32N 23°56' E 118°25'3917.3
2015-Mar-16 19:15N 24°14' E 119°04'4816.5
2015-Mar-16 16:20N 24°41' E 119°47'  
Track history (hours):
 
Tides and Currents Weather Stations Pressure Air Temp Water Temp Dewpoint Dewpoint Depression Visibility Wind Speed Wind Dir Waves Ship Positions

Nyk Olympus

Last reported at 2015-Mar-24 14:11 UTC. Time now 2015-Mar-27 06:55 UTC.
Position N 02°05' E 102°08'.

Length 335 m; draft 12.5 m.

Type: Ship. MMSI: 372478000.

Date/timePositionNaut miles runAvg speedWind from/ knotsBaromVisibWave heightAir tempDewpointWater temp
2015-Mar-24 14:11N 02°05' E 102°08'1218.3
2015-Mar-24 13:32N 01°57' E 102°16'1919.3
2015-Mar-24 12:33N 01°48' E 102°33'2120.7
2015-Mar-24 11:33N 01°38' E 102°52'6019.9
2015-Mar-24 08:32N 01°08' E 103°44'1010.3
2015-Mar-24 07:33N 01°15' E 103°51'1 0.9
2015-Mar-24 06:28N 01°16' E 103°51'0 0.0
2015-Mar-24 05:28N 01°16' E 103°51'0 0.0
2015-Mar-24 04:28N 01°16' E 103°51'0 0.0
2015-Mar-24 03:28N 01°16' E 103°51'0 0.0
2015-Mar-24 02:28N 01°16' E 103°51'0 0.0
2015-Mar-24 01:28N 01°16' E 103°51'0 0.0
2015-Mar-24 00:22N 01°16' E 103°51'0 0.0
2015-Mar-23 23:10N 01°16' E 103°51'0 0.0
2015-Mar-23 22:28N 01°16' E 103°51'0 0.0
2015-Mar-23 20:28N 01°16' E 103°51'0 0.0
2015-Mar-23 18:04N 01°16' E 103°51'0 0.0
2015-Mar-23 16:04N 01°16' E 103°51'0 0.0
2015-Mar-23 15:28N 01°16' E 103°51'0 0.0
2015-Mar-23 14:28N 01°16' E 103°51'0 0.0
2015-Mar-23 13:28N 01°16' E 103°51'0 0.0
2015-Mar-23 12:28N 01°16' E 103°51'0 0.0
2015-Mar-23 11:28N 01°16' E 103°51'0 0.0
2015-Mar-23 10:31N 01°16' E 103°51'0 0.0
2015-Mar-23 09:31N 01°16' E 103°51'0 0.0
2015-Mar-23 08:28N 01°16' E 103°51'0 0.0
2015-Mar-23 07:31N 01°16' E 103°51'0 0.0
2015-Mar-23 06:28N 01°16' E 103°51'0 0.0
2015-Mar-23 05:28N 01°16' E 103°51'0 0.0
2015-Mar-23 04:28N 01°16' E 103°51'0 0.0
2015-Mar-23 03:31N 01°16' E 103°51'0 0.0
2015-Mar-23 02:28N 01°16' E 103°51'0 0.0
2015-Mar-23 01:28N 01°16' E 103°51'0 0.0
2015-Mar-23 00:28N 01°16' E 103°51'0 0.0
2015-Mar-22 23:28N 01°16' E 103°51'3 3.5
2015-Mar-22 22:33N 01°14' E 103°53'4 3.9
2015-Mar-22 21:33N 01°15' E 103°57'9 9.2
2015-Mar-22 20:33N 01°17' E 104°06'1211.7
2015-Mar-22 19:32N 01°19' E 104°18'  
2015-Mar-18 10:13N 21°50' E 114°24'1217.6
2015-Mar-18 09:33N 22°02' E 114°27'2412.2
2015-Mar-18 07:33N 22°17' E 114°06'3 3.2
2015-Mar-18 06:33N 22°20' E 114°08'0 0.0
2015-Mar-18 04:21N 22°20' E 114°08'0 0.0
2015-Mar-18 02:30N 22°20' E 114°08'0 0.0
2015-Mar-18 01:33N 22°20' E 114°08'0 0.0
2015-Mar-18 00:24N 22°20' E 114°08'0 0.0
2015-Mar-17 23:24N 22°20' E 114°08'0 0.0
2015-Mar-17 22:33N 22°20' E 114°08'0 0.0
2015-Mar-17 21:33N 22°20' E 114°08'0 0.0
2015-Mar-17 20:33N 22°20' E 114°08'0 0.1
2015-Mar-17 19:33N 22°20' E 114°07'0 0.1
2015-Mar-17 18:33N 22°20' E 114°08'0 0.0
2015-Mar-17 17:33N 22°20' E 114°08'0 0.0
2015-Mar-17 16:27N 22°20' E 114°08'0 0.0
2015-Mar-17 15:33N 22°20' E 114°08'0 0.0
2015-Mar-17 14:33N 22°20' E 114°08'4 3.6
2015-Mar-17 13:33N 22°16' E 114°07'10 9.8
2015-Mar-17 12:33N 22°09' E 114°14'1312.8
2015-Mar-17 11:33N 22°09' E 114°28'19417.4
2015-Mar-17 00:25N 23°26' E 117°41'1517.8
2015-Mar-16 23:33N 23°36' E 117°53'1817.5
2015-Mar-16 22:33N 23°47' E 118°08'1817.4
2015-Mar-16 21:32N 23°56' E 118°25'3917.3
2015-Mar-16 19:15N 24°14' E 119°04'4816.5
2015-Mar-16 16:20N 24°41' E 119°47'  

Dump ship's entire track history